Spearsville, Louisiana
Current Conditions -  °F | °C
As of 7:53 PM on Wednesday 26 Nov 2014 (Local Time) from KELD Reporting Station
Clear Clear  
Wind Chill: 38°   Ceiling: Unl
Heat Index: 41°   Visibility: 10mi
Dew Point: 36°   Wind: 5mph
Humidity: 82%   Direction: 280°W
Pressure: 30.23"   Gusts: NA
Location:  32.94°N, 92.61°W
Report Text: KELD 270153Z AUTO 28004KT 10SM CLR 05/02 A3023 RMK AO2 SLP236 T00500022
Loading
Personal Weather Stations






























Interactive Weather Map New forecast layout! Learn more

10-Day Weather Forecast

Advertisements
Track Severe Weather on mobile